createdAt,value
2019-02-16T00:02:24.038Z,72.19
2019-02-16T00:04:52.529Z,72.31
2019-02-16T00:07:20.984Z,72.52
2019-02-16T00:09:49.488Z,72.71
2019-02-16T00:12:18.305Z,72.93
2019-02-16T00:14:46.776Z,73.24
2019-02-16T00:17:15.270Z,73.48
2019-02-16T00:19:43.732Z,73.67
2019-02-16T00:22:12.187Z,73.89
2019-02-16T00:24:40.681Z,74.02
2019-02-16T00:27:09.138Z,74.09
2019-02-16T00:29:37.604Z,74.22
2019-02-16T00:32:06.096Z,74.51
2019-02-16T00:34:34.555Z,74.66
2019-02-16T00:37:03.082Z,74.87
2019-02-16T00:39:31.598Z,74.94
2019-02-16T00:42:00.074Z,75.20
2019-02-16T00:44:30.193Z,75.26
2019-02-16T00:46:58.905Z,75.39
2019-02-16T00:49:27.354Z,75.54
2019-02-16T00:51:55.824Z,75.71
2019-02-16T00:54:24.341Z,75.95
2019-02-16T00:56:52.796Z,76.04
2019-02-16T00:59:21.262Z,76.23
2019-02-16T01:01:51.813Z,76.32
2019-02-16T01:04:20.283Z,76.53
2019-02-16T01:06:48.734Z,76.57
2019-02-16T01:09:17.212Z,76.56
2019-02-16T01:11:45.673Z,76.76
2019-02-16T01:14:14.330Z,76.84
2019-02-16T01:16:42.850Z,76.88
2019-02-16T01:19:11.329Z,76.85
2019-02-16T01:21:39.789Z,76.86
2019-02-16T01:24:08.342Z,77.07
2019-02-16T01:26:36.759Z,77.06
2019-02-16T01:29:05.234Z,76.98
2019-02-16T01:31:33.714Z,77.07
2019-02-16T01:34:02.176Z,77.30
2019-02-16T01:36:30.636Z,77.40
2019-02-16T01:38:59.144Z,77.49
2019-02-16T01:41:27.625Z,77.67
2019-02-16T01:43:56.084Z,77.93
2019-02-16T01:46:24.564Z,78.13
2019-02-16T01:48:53.026Z,78.19
2019-02-16T01:51:21.487Z,78.15
2019-02-16T01:53:50.007Z,78.19
2019-02-16T01:56:18.451Z,78.28
2019-02-16T01:58:46.909Z,78.38
2019-02-16T02:01:15.394Z,78.47
2019-02-16T02:03:43.928Z,78.57
2019-02-16T02:06:12.401Z,78.62
2019-02-16T02:08:40.884Z,78.50
2019-02-16T02:11:09.341Z,78.57
2019-02-16T02:13:37.803Z,78.68
2019-02-16T02:16:07.657Z,78.58
2019-02-16T02:18:36.114Z,78.54
2019-02-16T02:21:04.560Z,78.58
2019-02-16T02:23:33.037Z,78.64
2019-02-16T02:26:01.480Z,78.66
2019-02-16T02:28:29.930Z,78.86
2019-02-16T02:30:58.472Z,79.04
2019-02-16T02:33:26.923Z,79.44
2019-02-16T02:35:55.383Z,79.47
2019-02-16T02:38:23.871Z,79.47
2019-02-16T02:40:52.327Z,80.08
2019-02-16T02:43:20.782Z,80.19
2019-02-16T02:45:49.260Z,80.60
2019-02-16T02:48:17.719Z,80.33
2019-02-16T02:50:46.178Z,80.87
2019-02-16T02:53:14.688Z,80.43
2019-02-16T02:55:43.143Z,80.42
2019-02-16T02:58:11.600Z,80.54
2019-02-16T03:00:40.083Z,80.93
2019-02-16T03:03:08.522Z,81.28
2019-02-16T03:05:36.978Z,81.12
2019-02-16T03:08:05.476Z,81.05
2019-02-16T03:10:33.926Z,81.02
2019-02-16T03:13:02.380Z,80.62
2019-02-16T03:15:30.885Z,80.82
2019-02-16T03:18:00.322Z,80.97
2019-02-16T03:20:28.791Z,81.31
2019-02-16T03:23:14.144Z,81.76
2019-02-16T03:26:00.631Z,81.86
2019-02-16T03:28:31.931Z,81.89
2019-02-16T03:31:21.562Z,81.70
2019-02-16T03:33:53.219Z,81.71
2019-02-16T03:36:46.094Z,81.19
2019-02-16T03:39:15.948Z,81.50
2019-02-16T03:41:44.396Z,81.71
2019-02-16T03:44:12.869Z,81.95
2019-02-16T03:46:41.370Z,81.70
2019-02-16T03:49:09.838Z,81.48
2019-02-16T03:51:38.297Z,81.44
2019-02-16T03:54:06.784Z,81.65
2019-02-16T03:56:35.275Z,81.75
2019-02-16T03:59:03.739Z,81.85
2019-02-16T04:01:32.233Z,81.83
2019-02-16T04:04:00.678Z,82.00
2019-02-16T04:06:29.130Z,82.27
2019-02-16T04:08:57.609Z,82.27
2019-02-16T04:11:26.081Z,82.44
2019-02-16T04:13:54.533Z,82.24
2019-02-16T04:16:23.032Z,82.07
2019-02-16T04:18:51.825Z,81.99
2019-02-16T04:21:20.286Z,81.88
2019-02-16T04:23:48.788Z,82.06
2019-02-16T04:26:17.321Z,82.22
2019-02-16T04:28:45.771Z,82.51
2019-02-16T04:31:14.272Z,82.61
2019-02-16T04:33:42.717Z,82.68
2019-02-16T04:36:11.173Z,82.73
2019-02-16T04:38:39.654Z,82.85
2019-02-16T04:41:08.102Z,82.96
2019-02-16T04:43:36.557Z,83.08
2019-02-16T04:46:05.038Z,82.91
2019-02-16T04:48:33.500Z,83.04
2019-02-16T04:51:01.967Z,82.83
2019-02-16T04:53:30.469Z,82.75
2019-02-16T04:55:58.925Z,82.78
2019-02-16T04:58:27.384Z,82.77
2019-02-16T05:00:55.892Z,82.81
2019-02-16T05:03:24.346Z,82.82
2019-02-16T05:05:52.808Z,82.85
2019-02-16T05:08:21.308Z,82.72
2019-02-16T05:10:49.753Z,82.71
2019-02-16T05:13:18.210Z,82.60
2019-02-16T05:15:46.695Z,82.63
2019-02-16T05:18:15.717Z,82.66
2019-02-16T05:20:44.506Z,82.76
2019-02-16T05:23:12.996Z,82.98
2019-02-16T05:25:41.444Z,82.94
2019-02-16T05:28:09.892Z,82.99
2019-02-16T05:30:38.404Z,83.04
2019-02-16T05:33:06.870Z,83.12
2019-02-16T05:35:35.343Z,83.08
2019-02-16T05:38:03.849Z,83.00
2019-02-16T05:40:32.313Z,83.00
2019-02-16T05:43:00.772Z,82.91
2019-02-16T05:45:29.262Z,82.80
2019-02-16T05:47:57.720Z,82.83
2019-02-16T05:50:26.182Z,82.91
2019-02-16T05:52:54.822Z,82.67
2019-02-16T05:55:23.313Z,82.74
2019-02-16T05:57:51.781Z,82.85
2019-02-16T06:00:21.916Z,82.91
2019-02-16T06:02:50.372Z,82.90
2019-02-16T06:05:18.811Z,82.73
2019-02-16T06:07:47.325Z,82.77
2019-02-16T06:10:15.810Z,82.73
2019-02-16T06:12:44.254Z,82.78
2019-02-16T06:15:12.733Z,82.75
2019-02-16T06:17:41.187Z,82.81
2019-02-16T06:20:09.897Z,82.88
2019-02-16T06:22:38.518Z,82.92
2019-02-16T06:25:06.980Z,82.77
2019-02-16T06:27:35.421Z,82.67
2019-02-16T06:30:04.851Z,82.57
2019-02-16T06:32:33.290Z,82.48
2019-02-16T06:35:03.416Z,82.37
2019-02-16T06:37:31.913Z,82.27
2019-02-16T06:40:00.383Z,82.24
2019-02-16T06:42:28.838Z,82.31
2019-02-16T06:44:57.338Z,82.27
2019-02-16T06:47:25.781Z,82.20
2019-02-16T06:49:54.248Z,82.11
2019-02-16T06:52:22.727Z,81.95
2019-02-16T06:54:51.196Z,81.91
2019-02-16T06:57:23.949Z,81.82
2019-02-16T06:59:52.436Z,81.75
2019-02-16T07:02:21.568Z,81.51
2019-02-16T07:04:50.033Z,81.20
2019-02-16T07:07:18.540Z,80.88
2019-02-16T07:09:47.001Z,80.58
2019-02-16T07:12:15.472Z,80.28
2019-02-16T07:14:43.948Z,80.02
2019-02-16T07:17:16.465Z,79.67
2019-02-16T07:19:46.552Z,79.67
2019-02-16T07:22:15.064Z,79.06
2019-02-16T07:24:43.804Z,79.06
2019-02-16T07:27:12.253Z,79.04
2019-02-16T07:29:41.797Z,79.04
2019-02-16T07:32:10.341Z,78.52
2019-02-16T07:34:38.837Z,77.60
2019-02-16T07:37:07.344Z,77.60
2019-02-16T07:39:35.821Z,76.37
2019-02-16T07:42:05.679Z,76.37
2019-02-16T07:44:38.781Z,76.06
2019-02-16T07:47:13.154Z,76.06
2019-02-16T07:49:52.004Z,75.83
2019-02-16T07:52:27.915Z,74.72
2019-02-16T07:54:58.156Z,75.06
2019-02-16T07:57:28.299Z,74.53
2019-02-16T08:00:02.968Z,74.53
2019-02-16T08:02:39.117Z,74.11
2019-02-16T08:05:09.489Z,73.97
2019-02-16T08:07:55.967Z,73.86
2019-02-16T08:10:31.896Z,73.03
2019-02-16T08:13:08.783Z,72.95
2019-02-16T08:15:46.379Z,72.60
2019-02-16T08:18:32.801Z,72.32
2019-02-16T08:21:03.465Z,71.91
2019-02-16T08:23:50.039Z,71.56
2019-02-16T08:26:41.419Z,71.24
2019-02-16T08:29:11.540Z,70.80
2019-02-16T08:31:44.662Z,70.25
2019-02-16T08:37:39.510Z,69.88
2019-02-16T08:40:11.180Z,69.52
2019-02-16T08:42:59.352Z,69.17
2019-02-16T08:45:31.898Z,68.84
2019-02-16T08:48:02.022Z,68.59
2019-02-16T08:50:51.985Z,68.26
2019-02-16T08:53:31.883Z,68.02
2019-02-16T08:56:02.154Z,67.53
2019-02-16T08:58:48.312Z,67.26
2019-02-16T09:01:27.556Z,66.94
2019-02-16T09:04:12.968Z,66.89
2019-02-16T09:06:48.952Z,66.40
2019-02-16T09:09:32.016Z,66.12
2019-02-16T09:12:18.396Z,65.77
2019-02-16T09:14:57.492Z,65.35
2019-02-16T09:17:36.325Z,65.04
2019-02-16T09:20:10.722Z,64.86
2019-02-16T09:22:40.854Z,64.21
2019-02-16T09:25:10.953Z,63.98
2019-02-16T09:27:51.159Z,63.95
2019-02-16T09:30:43.074Z,63.43
2019-02-16T09:33:15.653Z,62.83
2019-02-16T09:36:01.745Z,62.64
2019-02-16T09:38:31.947Z,62.25
2019-02-16T09:41:17.116Z,61.91
2019-02-16T09:44:03.574Z,61.64
2019-02-16T09:46:50.028Z,61.54
2019-02-16T09:49:29.385Z,61.28
2019-02-16T09:52:05.215Z,61.03
2019-02-16T09:54:38.091Z,60.58
2019-02-16T09:57:23.247Z,60.42
2019-02-16T10:00:05.150Z,59.70
2019-02-16T10:02:40.877Z,59.62
2019-02-16T10:05:11.005Z,59.41
2019-02-16T10:07:52.917Z,59.14
2019-02-16T10:10:25.845Z,58.96
2019-02-16T10:13:04.738Z,58.81
2019-02-16T10:15:40.596Z,58.30
2019-02-16T10:18:26.096Z,58.07
2019-02-16T10:21:12.729Z,57.38
2019-02-16T10:23:45.478Z,57.08
2019-02-16T10:26:15.629Z,56.91
2019-02-16T10:28:58.207Z,56.38
2019-02-16T10:31:36.796Z,56.23
2019-02-16T10:34:09.919Z,55.98
2019-02-16T10:36:40.009Z,55.78
2019-02-16T10:39:16.188Z,55.54
2019-02-16T10:41:51.909Z,54.79
2019-02-16T10:44:31.064Z,54.68
2019-02-16T10:47:17.633Z,54.39
2019-02-16T10:49:57.011Z,54.10
2019-02-16T10:52:27.126Z,53.85
2019-02-16T10:55:03.279Z,53.69
2019-02-16T10:57:45.621Z,53.41
2019-02-16T11:00:15.750Z,53.14
2019-02-16T11:03:02.278Z,52.96
2019-02-16T11:05:38.482Z,52.95
2019-02-16T11:08:17.574Z,52.78
2019-02-16T11:10:53.184Z,52.56
2019-02-16T11:13:23.292Z,52.13
2019-02-16T11:15:56.264Z,52.01
2019-02-16T11:18:43.470Z,51.85
2019-02-16T11:21:25.558Z,51.86
2019-02-16T11:24:04.690Z,51.76
2019-02-16T11:26:44.018Z,51.38
2019-02-16T11:29:14.188Z,51.04
2019-02-16T11:31:45.412Z,50.54
2019-02-16T11:34:27.203Z,49.67
2019-02-16T11:36:57.302Z,49.77
2019-02-16T11:39:27.397Z,49.76
2019-02-16T11:42:03.508Z,49.81
2019-02-16T11:44:33.621Z,49.29
2019-02-16T11:47:12.959Z,48.79
2019-02-16T11:49:46.199Z,48.16
2019-02-16T11:52:19.231Z,47.39
2019-02-16T11:54:59.547Z,47.09
2019-02-16T11:57:32.673Z,46.91
2019-02-16T12:00:02.788Z,46.70
2019-02-16T12:02:39.776Z,46.46
2019-02-16T12:05:08.213Z,46.10
2019-02-16T12:07:42.553Z,46.11
2019-02-16T12:10:21.572Z,46.36
2019-02-16T12:12:54.147Z,46.95
2019-02-16T12:15:24.256Z,46.90
2019-02-16T12:17:54.502Z,45.89
2019-02-16T12:20:41.069Z,46.10
2019-02-16T12:23:13.278Z,45.93
2019-02-16T12:25:49.168Z,44.83
2019-02-16T12:28:22.017Z,44.84
2019-02-16T12:31:08.535Z,44.83
2019-02-16T12:33:39.412Z,44.62
2019-02-16T12:36:14.127Z,44.39
2019-02-16T12:38:47.003Z,43.09
2019-02-16T12:41:20.031Z,43.30
2019-02-16T12:43:55.746Z,44.00
2019-02-16T12:46:25.894Z,43.82
2019-02-16T12:49:01.484Z,43.64
2019-02-16T12:51:37.393Z,44.00
2019-02-16T12:54:23.551Z,44.26
2019-02-16T12:56:53.693Z,44.30
2019-02-16T12:59:41.509Z,44.44
2019-02-16T13:02:18.624Z,44.48
2019-02-16T13:04:57.851Z,44.97
2019-02-16T13:07:33.985Z,45.04
2019-02-16T13:10:04.152Z,44.58
2019-02-16T13:12:37.336Z,44.89
2019-02-16T13:15:25.391Z,44.86
2019-02-16T13:18:03.703Z,45.00
2019-02-16T13:20:46.225Z,44.43
2019-02-16T13:23:25.166Z,43.64
2019-02-16T13:25:58.137Z,43.80
2019-02-16T13:28:34.317Z,43.48
2019-02-16T13:31:12.730Z,43.49
2019-02-16T13:34:00.958Z,43.47
2019-02-16T13:36:34.487Z,42.91
2019-02-16T13:39:04.586Z,43.28
2019-02-16T13:41:34.752Z,43.02
2019-02-16T13:44:05.072Z,42.75
2019-02-16T13:46:51.333Z,42.37
2019-02-16T13:49:24.236Z,41.93
2019-02-16T13:51:54.335Z,42.39
2019-02-16T13:54:24.454Z,42.33
2019-02-16T13:56:54.606Z,42.67
2019-02-16T13:59:24.724Z,42.33
2019-02-16T14:01:55.101Z,41.09
2019-02-16T14:04:32.490Z,41.39
2019-02-16T14:07:05.015Z,41.52
2019-02-16T14:09:44.320Z,41.96
2019-02-16T14:12:30.107Z,42.55
2019-02-16T14:15:06.173Z,42.52
2019-02-16T14:17:42.091Z,42.88
2019-02-16T14:20:10.608Z,43.34
2019-02-16T14:22:39.105Z,43.43
2019-02-16T14:25:09.272Z,43.69
2019-02-16T14:27:37.782Z,44.10
2019-02-16T14:30:09.693Z,44.13
2019-02-16T14:32:38.188Z,43.34
2019-02-16T14:35:08.330Z,43.54
2019-02-16T14:37:39.920Z,43.70
2019-02-16T14:40:09.005Z,43.82
2019-02-16T14:42:37.473Z,43.82
2019-02-16T14:45:09.158Z,44.41
2019-02-16T14:47:37.734Z,44.21
2019-02-16T14:50:08.525Z,44.26
2019-02-16T14:52:37.006Z,44.28
2019-02-16T14:55:09.051Z,44.45
2019-02-16T14:57:37.607Z,44.49
2019-02-16T15:00:09.074Z,44.50
2019-02-16T15:02:37.621Z,44.37
2019-02-16T15:05:07.722Z,44.58
2019-02-16T15:07:37.922Z,44.55
2019-02-16T15:10:13.794Z,43.92
2019-02-16T15:12:42.304Z,44.00
2019-02-16T15:15:12.483Z,43.86
2019-02-16T15:17:41.025Z,43.28
2019-02-16T15:20:14.778Z,43.15
2019-02-16T15:22:43.264Z,43.51
2019-02-16T15:25:12.316Z,43.54
2019-02-16T15:27:40.948Z,43.65
2019-02-16T15:30:14.319Z,43.45
2019-02-16T15:32:42.935Z,43.36
2019-02-16T15:35:11.775Z,43.24
2019-02-16T15:37:40.313Z,43.27
2019-02-16T15:40:11.026Z,43.37
2019-02-16T15:42:39.564Z,43.58
2019-02-16T15:45:14.029Z,43.58
2019-02-16T15:47:42.663Z,43.68
2019-02-16T15:50:13.081Z,43.71
2019-02-16T15:52:41.561Z,43.83
2019-02-16T15:55:11.709Z,43.98
2019-02-16T15:57:41.710Z,44.17
2019-02-16T16:00:18.594Z,44.36
2019-02-16T16:02:47.080Z,44.46
2019-02-16T16:05:15.532Z,44.70
2019-02-16T16:07:45.668Z,45.12
2019-02-16T16:10:21.507Z,45.29
2019-02-16T16:12:57.673Z,45.60
2019-02-16T16:15:41.775Z,45.80
2019-02-16T16:18:08.067Z,45.98
2019-02-16T16:20:47.138Z,46.32
2019-02-16T16:23:17.282Z,46.60
2019-02-16T16:26:03.927Z,47.02
2019-02-16T16:28:39.918Z,47.26
2019-02-16T16:31:12.721Z,47.52
2019-02-16T16:33:48.846Z,47.92
2019-02-16T16:36:21.322Z,48.15
2019-02-16T16:38:51.430Z,48.42
2019-02-16T16:41:39.810Z,48.68
2019-02-16T16:44:09.927Z,49.00
2019-02-16T16:46:48.875Z,49.27
2019-02-16T16:49:21.418Z,49.59
2019-02-16T16:51:53.996Z,49.84
2019-02-16T16:54:39.187Z,50.17
2019-02-16T16:57:21.654Z,50.41
2019-02-16T16:59:51.751Z,50.67
2019-02-16T17:02:27.335Z,51.00
2019-02-16T17:04:57.435Z,51.27
2019-02-16T17:07:27.532Z,51.50
2019-02-16T17:09:57.676Z,51.72
2019-02-16T17:12:34.727Z,51.96
2019-02-16T17:15:05.260Z,52.19
2019-02-16T17:17:44.411Z,52.40
2019-02-16T17:20:17.520Z,52.68
2019-02-16T17:22:50.516Z,52.95
2019-02-16T17:25:29.637Z,53.14
2019-02-16T17:27:59.764Z,53.39
2019-02-16T17:30:41.663Z,53.63
2019-02-16T17:33:30.010Z,53.88
2019-02-16T17:36:02.848Z,54.08
2019-02-16T17:38:35.937Z,54.77
2019-02-16T17:41:06.039Z,55.82
2019-02-16T17:43:51.373Z,55.59
2019-02-16T17:46:37.797Z,55.82
2019-02-16T17:49:13.448Z,56.17
2019-02-16T17:51:46.264Z,55.76
2019-02-16T17:54:22.147Z,55.58
2019-02-16T17:57:07.292Z,55.55
2019-02-16T17:59:39.884Z,55.60
2019-02-16T18:02:09.984Z,55.66
2019-02-16T18:04:40.110Z,55.83
2019-02-16T18:07:22.518Z,55.94
2019-02-16T18:09:55.586Z,56.09
2019-02-16T18:12:28.434Z,56.27
2019-02-16T18:15:14.452Z,56.46
2019-02-16T18:17:50.571Z,56.62
2019-02-16T18:20:20.650Z,56.77
2019-02-16T18:22:56.766Z,56.92
2019-02-16T18:25:29.813Z,57.14
2019-02-16T18:28:08.650Z,57.24
2019-02-16T18:30:39.958Z,57.40
2019-02-16T18:33:12.791Z,57.54
2019-02-16T18:35:51.564Z,57.68
2019-02-16T18:38:21.670Z,57.84
2019-02-16T18:40:51.781Z,57.96
2019-02-16T18:43:21.938Z,58.10
2019-02-16T18:46:08.118Z,58.28
2019-02-16T18:48:41.168Z,58.35
2019-02-16T18:51:20.009Z,58.51
2019-02-16T18:54:02.331Z,58.70
2019-02-16T18:56:32.436Z,58.84
2019-02-16T18:59:02.512Z,58.96
2019-02-16T19:01:35.349Z,59.13
2019-02-16T19:04:08.647Z,59.26
2019-02-16T19:06:38.746Z,59.36
2019-02-16T19:09:11.650Z,59.45
2019-02-16T19:11:44.428Z,59.57
2019-02-16T19:14:26.921Z,59.66
2019-02-16T19:17:12.075Z,59.73
2019-02-16T19:19:56.992Z,59.75
2019-02-16T19:22:43.213Z,59.88
2019-02-16T19:25:13.357Z,59.98
2019-02-16T19:27:52.713Z,60.10
2019-02-16T19:30:28.816Z,60.29
2019-02-16T19:33:02.135Z,60.41
2019-02-16T19:35:37.897Z,60.55
2019-02-16T19:38:07.986Z,60.76
2019-02-16T19:40:46.923Z,60.91
2019-02-16T19:43:17.030Z,61.07
2019-02-16T19:45:49.575Z,61.27
2019-02-16T19:48:22.583Z,61.43
2019-02-16T19:50:52.695Z,61.64
2019-02-16T19:53:22.800Z,61.75
2019-02-16T19:55:59.207Z,61.93
2019-02-16T19:58:47.372Z,62.15
2019-02-16T20:01:23.317Z,62.35
2019-02-16T20:03:56.063Z,62.53
2019-02-16T20:06:41.241Z,62.78
2019-02-16T20:09:14.276Z,62.95
2019-02-16T20:11:59.223Z,63.17
2019-02-16T20:14:29.343Z,63.41
2019-02-16T20:17:02.599Z,63.70
2019-02-16T20:19:37.724Z,63.90
2019-02-16T20:22:07.820Z,64.09
2019-02-16T20:24:43.968Z,64.26
2019-02-16T20:27:25.599Z,64.51
2019-02-16T20:29:58.689Z,64.61
2019-02-16T20:32:34.764Z,64.76
2019-02-16T20:35:04.900Z,64.89
2019-02-16T20:37:40.886Z,65.00
2019-02-16T20:40:22.912Z,65.26
2019-02-16T20:42:53.119Z,65.39
2019-02-16T20:45:32.501Z,65.54
2019-02-16T20:48:02.607Z,65.70
2019-02-16T20:50:45.628Z,65.87
2019-02-16T20:53:33.839Z,65.97
2019-02-16T20:56:22.498Z,65.96
2019-02-16T20:58:52.613Z,66.00
2019-02-16T21:01:31.512Z,66.06
2019-02-16T21:04:01.609Z,66.26
2019-02-16T21:06:37.238Z,66.38
2019-02-16T21:09:24.772Z,66.53
2019-02-16T21:11:57.738Z,66.70
2019-02-16T21:14:27.848Z,66.82
2019-02-16T21:17:00.665Z,66.91
2019-02-16T21:19:33.560Z,67.07
2019-02-16T21:22:08.695Z,67.16
2019-02-16T21:24:38.321Z,67.34
2019-02-16T21:27:08.439Z,67.36
2019-02-16T21:29:41.458Z,67.51
2019-02-16T21:32:11.599Z,67.65
2019-02-16T21:34:57.597Z,67.77
2019-02-16T21:37:30.637Z,67.94
2019-02-16T21:40:09.656Z,68.05
2019-02-16T21:42:56.260Z,68.16
2019-02-16T21:45:32.330Z,68.20
2019-02-16T21:48:18.930Z,68.30
2019-02-16T21:50:56.474Z,68.42
2019-02-16T21:53:32.657Z,68.54
2019-02-16T21:56:05.641Z,68.64
2019-02-16T21:58:47.702Z,68.64
2019-02-16T22:01:33.955Z,68.69
2019-02-16T22:04:04.123Z,68.69
2019-02-16T22:06:34.233Z,68.71
2019-02-16T22:09:04.339Z,68.81
2019-02-16T22:11:34.481Z,68.86
2019-02-16T22:14:02.943Z,68.96
2019-02-16T22:16:31.403Z,68.96
2019-02-16T22:18:59.911Z,69.00
2019-02-16T22:21:28.385Z,68.96
2019-02-16T22:23:56.848Z,69.01
2019-02-16T22:26:25.340Z,68.99
2019-02-16T22:28:55.119Z,69.02
2019-02-16T22:31:23.668Z,69.14
2019-02-16T22:33:52.154Z,69.21
2019-02-16T22:36:20.617Z,69.21
2019-02-16T22:38:49.086Z,69.24
2019-02-16T22:41:17.574Z,69.32
2019-02-16T22:43:46.029Z,69.41
2019-02-16T22:46:14.486Z,69.49
2019-02-16T22:48:42.970Z,69.63
2019-02-16T22:51:12.451Z,69.71
2019-02-16T22:53:41.013Z,69.79
2019-02-16T22:56:09.553Z,69.90
2019-02-16T22:58:38.010Z,69.94
2019-02-16T23:01:06.946Z,70.06
2019-02-16T23:03:35.579Z,70.33
2019-02-16T23:06:04.171Z,70.39
2019-02-16T23:08:32.621Z,70.56
2019-02-16T23:11:01.104Z,70.65
2019-02-16T23:13:29.564Z,70.73
2019-02-16T23:15:58.027Z,70.72
2019-02-16T23:18:26.523Z,71.12
2019-02-16T23:20:54.981Z,71.12
2019-02-16T23:23:23.505Z,70.95
2019-02-16T23:25:52.013Z,70.97
2019-02-16T23:28:20.473Z,70.89
2019-02-16T23:30:48.940Z,71.21
2019-02-16T23:33:17.442Z,71.21
2019-02-16T23:35:46.295Z,71.22
2019-02-16T23:38:14.743Z,71.28
2019-02-16T23:40:43.263Z,71.31
2019-02-16T23:43:11.713Z,71.34
2019-02-16T23:45:40.179Z,71.42
2019-02-16T23:48:08.673Z,71.33
2019-02-16T23:50:37.127Z,71.47
2019-02-16T23:53:05.704Z,71.46
2019-02-16T23:55:34.212Z,71.43
2019-02-16T23:58:02.685Z,71.43
